Ibra, Oman
Current Conditions -  °F | °C
As of 2:50 PM on Monday 22 Dec 2014 (Local Time) from OOMS Reporting Station
Clear Clear  
Wind Chill: 77°   Ceiling: Unl
Heat Index: 79°   Visibility: 6mi
Dew Point: 59°   Wind: 14mph
Humidity: 54%   Direction: 360°N
Pressure: 29.88"   Gusts: NA
Location:  22.72°N, 58.53°E
Report Text: OOMS 221050Z 36012KT 320V020 9000 NSC 25/15 Q1012 NOSIG
Loading
Personal Weather Stations






























Interactive Weather Map New forecast layout! Learn more

10-Day Weather Forecast

Advertisements
Track Severe Weather on mobile